createdAt,value
2022-12-08T00:01:13.626Z,-0.65
2022-12-08T00:03:40.572Z,-0.67
2022-12-08T00:06:26.695Z,-0.58
2022-12-08T00:09:12.066Z,-0.62
2022-12-08T00:11:39.636Z,-0.56
2022-12-08T00:14:06.183Z,-0.60
2022-12-08T00:16:32.716Z,-0.67
2022-12-08T00:18:59.301Z,-0.58
2022-12-08T00:21:25.746Z,-0.75
2022-12-08T00:23:54.584Z,-0.66
2022-12-08T00:26:21.092Z,-0.60
2022-12-08T00:28:47.771Z,-0.64
2022-12-08T00:31:14.467Z,-0.59
2022-12-08T00:33:40.955Z,-0.62
2022-12-08T00:36:11.596Z,-0.61
2022-12-08T00:38:38.596Z,-0.68
2022-12-08T00:41:09.143Z,-0.61
2022-12-08T00:43:38.379Z,-0.49
2022-12-08T00:46:07.120Z,-0.51
2022-12-08T00:48:35.738Z,-0.52
2022-12-08T00:51:06.860Z,-0.56
2022-12-08T00:53:33.377Z,-0.49
2022-12-08T00:55:59.833Z,-0.49
2022-12-08T00:58:26.270Z,-0.42
2022-12-08T01:00:52.749Z,-0.44
2022-12-08T01:03:19.333Z,-0.47
2022-12-08T01:05:45.900Z,-0.41
2022-12-08T01:08:14.910Z,-0.35
2022-12-08T01:10:41.433Z,-0.30
2022-12-08T01:13:07.979Z,-0.27
2022-12-08T01:15:34.460Z,-0.36
2022-12-08T01:18:01.010Z,-0.26
2022-12-08T01:20:27.585Z,-0.28
2022-12-08T01:22:54.032Z,-0.31
2022-12-08T01:25:20.512Z,-0.26
2022-12-08T01:27:47.006Z,-0.22
2022-12-08T01:30:13.800Z,-0.25
2022-12-08T01:32:40.333Z,-0.29
2022-12-08T01:35:06.945Z,-0.25
2022-12-08T01:37:33.471Z,-0.18
2022-12-08T01:39:59.945Z,-0.22
2022-12-08T01:42:26.529Z,-0.20
2022-12-08T01:44:54.801Z,-0.18
2022-12-08T01:47:22.442Z,-0.19
2022-12-08T01:49:48.971Z,-0.21
2022-12-08T01:52:36.567Z,-0.20
2022-12-08T01:55:06.917Z,-0.15
2022-12-08T01:57:40.846Z,-0.23
2022-12-08T02:00:11.054Z,-0.22
2022-12-08T02:02:56.543Z,-0.18
2022-12-08T02:05:24.555Z,-0.18
2022-12-08T02:07:53.878Z,-0.31
2022-12-08T02:10:21.742Z,-0.32
2022-12-08T02:12:49.797Z,-0.25
2022-12-08T02:15:16.480Z,-0.23
2022-12-08T02:18:11.223Z,-0.25
2022-12-08T02:20:41.935Z,-0.16
2022-12-08T02:23:14.728Z,-0.17
2022-12-08T02:26:08.902Z,-0.20
2022-12-08T02:28:47.554Z,-0.14
2022-12-08T02:31:20.252Z,-0.16
2022-12-08T02:33:55.570Z,-0.13
2022-12-08T02:36:28.107Z,-0.11
2022-12-08T02:39:03.947Z,-0.03
2022-12-08T02:41:44.659Z,-0.07
2022-12-08T02:44:14.852Z,-0.04
2022-12-08T02:46:46.624Z,-0.04
2022-12-08T02:49:15.281Z,-0.06
2022-12-08T02:51:41.755Z,-0.02
2022-12-08T02:54:08.492Z,-0.03
2022-12-08T02:56:34.902Z,-0.08
2022-12-08T02:59:17.091Z,-0.13
2022-12-08T03:01:59.045Z,-0.07
2022-12-08T03:04:37.827Z,-0.05
2022-12-08T03:07:23.599Z,0.02
2022-12-08T03:09:59.103Z,0.01
2022-12-08T03:12:30.465Z,-0.13
2022-12-08T03:14:59.368Z,-0.08
2022-12-08T03:17:28.520Z,-0.02
2022-12-08T03:19:56.778Z,-0.03
2022-12-08T03:22:25.152Z,-0.14
2022-12-08T03:24:51.762Z,-0.11
2022-12-08T03:27:20.991Z,-0.09
2022-12-08T03:29:48.915Z,-0.09
2022-12-08T03:32:29.306Z,-0.07
2022-12-08T03:34:57.320Z,-0.04
2022-12-08T03:37:23.780Z,-0.04
2022-12-08T03:39:50.305Z,-0.07
2022-12-08T03:42:16.865Z,0.03
2022-12-08T03:44:43.411Z,0.09
2022-12-08T03:47:12.739Z,0.06
2022-12-08T03:49:42.270Z,0.04
2022-12-08T03:52:11.995Z,0.07
2022-12-08T03:54:40.834Z,0.12
2022-12-08T03:57:07.369Z,0.11
2022-12-08T03:59:33.952Z,0.04
2022-12-08T04:02:05.809Z,-0.02
2022-12-08T04:04:36.151Z,0.02
2022-12-08T04:07:05.491Z,-0.12
2022-12-08T04:09:35.721Z,-0.05
2022-12-08T04:12:13.198Z,-0.06
2022-12-08T04:14:42.998Z,-0.03
2022-12-08T04:17:20.048Z,-0.03
2022-12-08T04:19:52.294Z,0.06
2022-12-08T04:22:18.747Z,0.07
2022-12-08T04:24:53.647Z,-0.03
2022-12-08T04:27:24.284Z,0.14
2022-12-08T04:29:55.584Z,0.14
2022-12-08T04:32:27.475Z,0.09
2022-12-08T04:34:54.132Z,0.08
2022-12-08T04:37:23.345Z,0.08
2022-12-08T04:39:52.690Z,0.03
2022-12-08T04:42:33.149Z,0.03
2022-12-08T04:44:59.800Z,0.06
2022-12-08T04:47:27.394Z,0.09
2022-12-08T04:49:57.175Z,0.16
2022-12-08T04:52:26.512Z,0.09
2022-12-08T04:54:55.576Z,0.16
2022-12-08T04:57:24.499Z,0.20
2022-12-08T04:59:53.299Z,0.16
2022-12-08T05:02:22.475Z,0.24
2022-12-08T05:04:49.075Z,0.23
2022-12-08T05:07:26.054Z,0.27
2022-12-08T05:09:57.303Z,0.28
2022-12-08T05:12:23.949Z,0.34
2022-12-08T05:14:52.641Z,0.43
2022-12-08T05:17:21.268Z,0.34
2022-12-08T05:19:47.772Z,0.48
2022-12-08T05:22:14.368Z,0.40
2022-12-08T05:24:47.007Z,0.50
2022-12-08T05:27:14.139Z,0.56
2022-12-08T05:29:40.758Z,0.68
2022-12-08T05:32:07.411Z,0.53
2022-12-08T05:34:34.149Z,0.45
2022-12-08T05:37:00.772Z,0.49
2022-12-08T05:39:27.379Z,0.55
2022-12-08T05:41:53.943Z,0.53
2022-12-08T05:44:20.500Z,0.42
2022-12-08T05:46:46.982Z,0.53
2022-12-08T05:49:16.360Z,0.53
2022-12-08T05:51:42.907Z,0.58
2022-12-08T05:54:09.475Z,0.59
2022-12-08T05:56:36.088Z,0.58
2022-12-08T05:59:05.472Z,0.63
2022-12-08T06:01:32.206Z,0.59
2022-12-08T06:04:02.652Z,0.59
2022-12-08T06:06:29.670Z,0.63
2022-12-08T06:08:56.303Z,0.61
2022-12-08T06:11:23.775Z,0.59
2022-12-08T06:13:50.407Z,0.55
2022-12-08T06:16:17.720Z,0.62
2022-12-08T06:18:44.372Z,0.68
2022-12-08T06:21:11.817Z,0.63
2022-12-08T06:23:38.888Z,0.65
2022-12-08T06:26:06.575Z,0.59
2022-12-08T06:28:33.477Z,0.59
2022-12-08T06:30:59.921Z,0.65
2022-12-08T06:33:26.635Z,0.56
2022-12-08T06:35:53.116Z,0.60
2022-12-08T06:38:19.598Z,0.51
2022-12-08T06:40:53.066Z,0.47
2022-12-08T06:43:19.493Z,0.52
2022-12-08T06:45:46.020Z,0.49
2022-12-08T06:48:12.509Z,0.50
2022-12-08T06:50:38.979Z,0.46
2022-12-08T06:53:05.924Z,0.43
2022-12-08T06:55:57.697Z,0.47
2022-12-08T06:58:19.614Z,0.51
2022-12-08T07:00:46.376Z,0.52
2022-12-08T07:03:13.145Z,0.54
2022-12-08T07:05:39.774Z,0.59
2022-12-08T07:08:09.193Z,0.65
2022-12-08T07:10:36.100Z,0.69
2022-12-08T07:13:02.595Z,0.65
2022-12-08T07:15:29.198Z,0.67
2022-12-08T07:17:59.858Z,0.79
2022-12-08T07:20:29.400Z,0.74
2022-12-08T07:22:56.029Z,0.80
2022-12-08T07:25:22.531Z,0.78
2022-12-08T07:27:51.378Z,0.79
2022-12-08T07:30:17.868Z,0.83
2022-12-08T07:32:44.409Z,0.87
2022-12-08T07:35:11.117Z,0.83
2022-12-08T07:37:39.962Z,0.84
2022-12-08T07:40:07.664Z,0.92
2022-12-08T07:42:34.380Z,0.97
2022-12-08T07:45:01.017Z,0.95
2022-12-08T07:47:27.507Z,0.91
2022-12-08T07:49:54.027Z,0.98
2022-12-08T07:52:20.508Z,0.97
2022-12-08T07:54:47.316Z,0.95
2022-12-08T07:57:13.941Z,0.89
2022-12-08T07:59:40.459Z,1.04
2022-12-08T08:02:24.133Z,0.97
2022-12-08T08:04:52.467Z,1.01
2022-12-08T08:07:19.224Z,1.03
2022-12-08T08:09:45.893Z,1.08
2022-12-08T08:15:00.033Z,1.06
2022-12-08T08:17:26.800Z,1.10
2022-12-08T08:19:53.354Z,1.00
2022-12-08T08:22:19.892Z,1.10
2022-12-08T08:24:46.426Z,1.11
2022-12-08T08:27:12.933Z,1.13
2022-12-08T08:29:39.520Z,1.15
2022-12-08T08:32:06.170Z,1.23
2022-12-08T08:34:32.717Z,1.30
2022-12-08T08:36:59.374Z,1.38
2022-12-08T08:39:26.016Z,1.48
2022-12-08T08:41:52.716Z,1.74
2022-12-08T08:44:19.308Z,1.63
2022-12-08T08:46:45.935Z,1.56
2022-12-08T08:49:12.670Z,1.61
2022-12-08T08:51:39.221Z,1.52
2022-12-08T08:54:05.847Z,1.70
2022-12-08T08:56:32.550Z,1.72
2022-12-08T08:58:59.045Z,1.77
2022-12-08T09:01:26.998Z,1.79
2022-12-08T09:03:53.649Z,1.80
2022-12-08T09:06:20.745Z,1.97
2022-12-08T09:08:47.938Z,1.86
2022-12-08T09:11:14.630Z,1.95
2022-12-08T09:13:41.211Z,1.97
2022-12-08T09:16:11.373Z,2.07
2022-12-08T09:18:38.078Z,2.14
2022-12-08T09:21:05.847Z,2.07
2022-12-08T09:23:35.660Z,2.05
2022-12-08T09:26:03.172Z,2.07
2022-12-08T09:28:30.368Z,2.24
2022-12-08T09:39:40.319Z,2.28
2022-12-08T09:42:06.995Z,2.05
2022-12-08T09:44:42.174Z,2.15
2022-12-08T09:47:35.308Z,2.26
2022-12-08T09:50:08.187Z,2.38
2022-12-08T09:52:38.737Z,2.49
2022-12-08T09:55:11.972Z,2.44
2022-12-08T09:57:38.471Z,2.61
2022-12-08T10:00:06.551Z,2.66
2022-12-08T10:02:33.555Z,2.59
2022-12-08T10:05:00.033Z,2.66
2022-12-08T10:07:30.803Z,2.75
2022-12-08T10:10:06.958Z,2.59
2022-12-08T10:12:52.487Z,2.68
2022-12-08T10:15:18.959Z,2.47
2022-12-08T10:17:48.567Z,2.56
2022-12-08T10:20:19.834Z,2.63
2022-12-08T10:22:47.848Z,2.50
2022-12-08T10:25:19.152Z,2.62
2022-12-08T10:27:48.735Z,2.45
2022-12-08T10:30:16.358Z,2.61
2022-12-08T10:32:45.672Z,2.56
2022-12-08T10:35:13.285Z,2.63
2022-12-08T10:37:39.808Z,2.66
2022-12-08T10:40:11.134Z,2.53
2022-12-08T10:42:40.367Z,2.58
2022-12-08T10:45:09.720Z,2.74
2022-12-08T10:47:38.073Z,2.60
2022-12-08T10:50:10.729Z,2.61
2022-12-08T10:52:40.818Z,2.67
2022-12-08T10:55:15.264Z,2.65
2022-12-08T10:57:41.729Z,2.60
2022-12-08T11:00:14.229Z,2.55
2022-12-08T11:02:58.429Z,2.67
2022-12-08T11:05:27.208Z,2.62
2022-12-08T11:07:54.900Z,2.54
2022-12-08T11:10:27.141Z,2.53
2022-12-08T11:12:53.677Z,2.53
2022-12-08T11:15:20.404Z,2.53
2022-12-08T11:17:59.759Z,2.34
2022-12-08T11:20:26.176Z,2.40
2022-12-08T11:22:54.093Z,2.55
2022-12-08T11:25:27.749Z,2.55
2022-12-08T11:27:57.249Z,2.50
2022-12-08T11:30:25.259Z,2.49
2022-12-08T11:33:01.379Z,2.44
2022-12-08T11:35:33.766Z,2.35
2022-12-08T11:38:20.468Z,2.41
2022-12-08T11:40:50.208Z,2.49
2022-12-08T11:43:25.660Z,2.52
2022-12-08T11:46:03.318Z,2.55
2022-12-08T11:48:29.834Z,2.48
2022-12-08T11:51:00.701Z,2.54
2022-12-08T11:53:37.409Z,2.57
2022-12-08T11:56:08.133Z,2.54
2022-12-08T11:58:41.149Z,2.50
2022-12-08T12:01:16.814Z,2.51
2022-12-08T12:03:46.648Z,2.47
2022-12-08T12:06:38.022Z,2.40
2022-12-08T12:09:26.012Z,2.45
2022-12-08T12:12:13.793Z,2.47
2022-12-08T12:14:55.791Z,2.28
2022-12-08T12:17:42.462Z,2.24
2022-12-08T12:20:15.292Z,2.34
2022-12-08T12:22:42.507Z,2.31
2022-12-08T12:25:16.846Z,2.33
2022-12-08T12:27:44.867Z,2.29
2022-12-08T12:30:25.167Z,2.43
2022-12-08T12:32:54.616Z,2.45
2022-12-08T12:35:29.626Z,2.37
2022-12-08T12:37:58.105Z,2.43
2022-12-08T12:40:26.274Z,2.47
2022-12-08T12:42:55.536Z,2.48
2022-12-08T12:45:21.951Z,2.50
2022-12-08T12:48:00.482Z,2.46
2022-12-08T12:50:29.888Z,2.38
2022-12-08T12:52:56.474Z,2.23
2022-12-08T12:55:23.951Z,2.29
2022-12-08T12:57:54.801Z,2.34
2022-12-08T13:00:22.908Z,2.36
2022-12-08T13:02:50.730Z,2.37
2022-12-08T13:05:20.305Z,2.47
2022-12-08T13:08:02.202Z,2.43
2022-12-08T13:10:32.731Z,2.42
2022-12-08T13:13:04.373Z,2.56
2022-12-08T13:15:35.406Z,2.60
2022-12-08T13:18:01.993Z,2.54
2022-12-08T13:20:28.665Z,2.56
2022-12-08T13:23:10.876Z,2.57
2022-12-08T13:25:40.158Z,2.49
2022-12-08T13:28:15.698Z,2.45
2022-12-08T13:30:43.961Z,2.48
2022-12-08T13:33:18.803Z,2.46
2022-12-08T13:35:49.204Z,2.60
2022-12-08T13:38:17.282Z,2.62
2022-12-08T13:40:43.892Z,2.59
2022-12-08T13:43:25.396Z,2.51
2022-12-08T13:55:13.602Z,2.61
2022-12-08T13:57:26.562Z,2.54
2022-12-08T13:59:53.161Z,2.57
2022-12-08T14:02:22.359Z,2.51
2022-12-08T14:07:35.972Z,2.52
2022-12-08T14:10:04.119Z,2.50
2022-12-08T14:12:31.545Z,2.59
2022-12-08T14:15:04.036Z,2.83
2022-12-08T14:17:30.723Z,2.95
2022-12-08T14:19:58.516Z,2.77
2022-12-08T14:22:25.103Z,2.18
2022-12-08T14:24:52.770Z,1.69
2022-12-08T14:27:21.443Z,1.74
2022-12-08T14:29:52.223Z,2.01
2022-12-08T14:32:29.204Z,1.56
2022-12-08T14:35:08.128Z,1.37
2022-12-08T14:37:40.954Z,1.32
2022-12-08T14:40:23.059Z,1.27
2022-12-08T14:42:53.098Z,1.21
2022-12-08T14:45:19.944Z,1.18
2022-12-08T14:47:46.978Z,1.18
2022-12-08T14:50:32.010Z,1.22
2022-12-08T14:52:59.195Z,1.24
2022-12-08T14:55:25.793Z,1.23
2022-12-08T14:57:52.302Z,1.31
2022-12-08T15:00:20.042Z,1.31
2022-12-08T15:02:46.937Z,1.36
2022-12-08T15:05:18.154Z,1.43
2022-12-08T15:07:44.679Z,1.41
2022-12-08T15:10:17.256Z,1.41
2022-12-08T15:13:00.632Z,1.41
2022-12-08T15:15:27.719Z,1.37
2022-12-08T15:18:03.278Z,1.34
2022-12-08T15:20:35.337Z,1.32
2022-12-08T15:23:02.412Z,1.37
2022-12-08T15:25:28.974Z,1.35
2022-12-08T15:27:57.150Z,1.32
2022-12-08T15:30:26.259Z,1.30
2022-12-08T15:32:54.244Z,1.32
2022-12-08T15:35:21.360Z,1.30
2022-12-08T15:37:47.918Z,1.46
2022-12-08T15:40:15.772Z,1.40
2022-12-08T15:42:42.193Z,1.36
2022-12-08T15:45:12.223Z,1.32
2022-12-08T15:47:38.831Z,1.29
2022-12-08T15:50:07.299Z,1.25
2022-12-08T15:55:10.267Z,1.24
2022-12-08T15:58:17.447Z,1.20
2022-12-08T16:00:51.303Z,1.13
2022-12-08T16:03:59.877Z,1.16
2022-12-08T16:09:17.922Z,1.08
2022-12-08T16:12:10.515Z,1.05
2022-12-08T16:17:40.047Z,1.00
2022-12-08T16:20:15.926Z,0.97
2022-12-08T16:23:13.124Z,1.03
2022-12-08T16:25:52.794Z,1.05
2022-12-08T16:28:52.247Z,0.95
2022-12-08T16:31:10.233Z,0.94
2022-12-08T16:33:39.897Z,0.89
2022-12-08T16:36:06.523Z,0.89
2022-12-08T16:38:38.090Z,0.85
2022-12-08T16:41:26.467Z,0.82
2022-12-08T16:43:53.165Z,0.82
2022-12-08T16:46:23.284Z,0.80
2022-12-08T16:48:50.050Z,0.81
2022-12-08T16:51:22.013Z,0.81
2022-12-08T16:53:52.248Z,0.77
2022-12-08T16:56:19.903Z,0.77
2022-12-08T16:58:47.014Z,0.74
2022-12-08T17:01:14.506Z,0.69
2022-12-08T17:04:01.087Z,0.70
2022-12-08T17:06:30.376Z,0.91
2022-12-08T17:08:56.910Z,0.79
2022-12-08T17:11:24.141Z,0.71
2022-12-08T17:13:50.713Z,0.65
2022-12-08T17:16:19.347Z,0.60
2022-12-08T17:18:46.432Z,0.60
2022-12-08T17:21:15.472Z,0.57
2022-12-08T17:23:42.416Z,0.54
2022-12-08T17:26:10.499Z,0.49
2022-12-08T17:28:59.471Z,0.47
2022-12-08T17:31:29.308Z,0.44
2022-12-08T17:33:58.392Z,0.42
2022-12-08T17:36:25.015Z,0.39
2022-12-08T17:38:51.715Z,0.34
2022-12-08T17:41:18.221Z,0.25
2022-12-08T17:43:44.761Z,0.25
2022-12-08T17:46:16.250Z,0.27
2022-12-08T17:48:42.850Z,0.18
2022-12-08T17:51:09.887Z,0.13
2022-12-08T17:53:37.585Z,0.10
2022-12-08T17:56:04.398Z,0.07
2022-12-08T17:58:31.334Z,0.01
2022-12-08T18:00:57.895Z,-0.02
2022-12-08T18:03:24.489Z,-0.08
2022-12-08T18:05:50.987Z,-0.08
2022-12-08T18:08:17.764Z,-0.13
2022-12-08T18:10:44.288Z,-0.15
2022-12-08T18:13:10.886Z,-0.15
2022-12-08T18:15:39.293Z,-0.19
2022-12-08T18:18:06.095Z,-0.22
2022-12-08T18:20:32.629Z,-0.24
2022-12-08T18:22:59.148Z,-0.23
2022-12-08T18:25:25.850Z,-0.25
2022-12-08T18:27:52.519Z,-0.28
2022-12-08T18:30:19.106Z,-0.31
2022-12-08T18:32:45.801Z,-0.23
2022-12-08T18:35:12.539Z,-0.30
2022-12-08T18:37:39.450Z,-0.31
2022-12-08T18:40:06.598Z,-0.26
2022-12-08T18:42:33.243Z,-0.35
2022-12-08T18:45:07.290Z,-0.41
2022-12-08T18:47:34.852Z,-0.44
2022-12-08T18:50:01.418Z,-0.47
2022-12-08T18:52:32.370Z,-0.47
2022-12-08T18:55:07.497Z,-0.48
2022-12-08T18:57:34.955Z,-0.51
2022-12-08T19:00:02.745Z,-0.50
2022-12-08T19:02:29.615Z,-0.47
2022-12-08T19:04:56.162Z,-0.47
2022-12-08T19:07:22.733Z,-0.51
2022-12-08T19:09:49.975Z,-0.54
2022-12-08T19:12:16.800Z,-0.53
2022-12-08T19:14:43.396Z,-0.58
2022-12-08T19:17:09.929Z,-0.59
2022-12-08T19:22:12.367Z,-0.75
2022-12-08T19:24:38.919Z,-0.80
2022-12-08T19:27:05.871Z,-0.84
2022-12-08T19:29:35.664Z,-0.83
2022-12-08T19:32:03.268Z,-0.89
2022-12-08T19:34:29.692Z,-0.93
2022-12-08T19:36:56.164Z,-0.96
2022-12-08T19:39:42.292Z,-0.93
2022-12-08T19:42:37.264Z,-0.91
2022-12-08T19:45:11.105Z,-0.94
2022-12-08T19:47:38.150Z,-0.96
2022-12-08T19:50:23.907Z,-0.93
2022-12-08T19:52:50.360Z,-0.88
2022-12-08T19:55:16.932Z,-0.88
2022-12-08T19:57:43.392Z,-0.81
2022-12-08T20:00:10.944Z,-0.73
2022-12-08T20:02:37.721Z,-0.79
2022-12-08T20:05:04.787Z,-0.84
2022-12-08T20:07:31.328Z,-0.84
2022-12-08T20:09:57.792Z,-0.86
2022-12-08T20:12:24.236Z,-0.90
2022-12-08T20:14:50.728Z,-0.89
2022-12-08T20:17:17.189Z,-0.86
2022-12-08T20:19:43.696Z,-0.88
2022-12-08T20:22:10.228Z,-0.91
2022-12-08T20:24:36.687Z,-0.96
2022-12-08T20:27:03.186Z,-0.90
2022-12-08T20:29:29.616Z,-0.88
2022-12-08T20:31:56.209Z,-0.83
2022-12-08T20:34:22.690Z,-0.80
2022-12-08T20:36:49.435Z,-0.83
2022-12-08T20:39:17.636Z,-0.79
2022-12-08T20:41:44.767Z,-0.84
2022-12-08T20:44:11.304Z,-0.85
2022-12-08T20:46:38.148Z,-0.89
2022-12-08T20:49:05.183Z,-0.87
2022-12-08T20:51:32.812Z,-0.91
2022-12-08T20:54:01.305Z,-0.94
2022-12-08T20:56:27.991Z,-0.94
2022-12-08T20:58:55.672Z,-0.94
2022-12-08T21:01:23.008Z,-0.98
2022-12-08T21:03:49.799Z,-1.03
2022-12-08T21:06:16.928Z,-1.10
2022-12-08T21:08:43.534Z,-1.15
2022-12-08T21:11:10.660Z,-1.22
2022-12-08T21:13:37.907Z,-1.25
2022-12-08T21:16:05.073Z,-1.30
2022-12-08T21:18:39.000Z,-1.32
2022-12-08T21:21:07.687Z,-1.35
2022-12-08T21:23:34.450Z,-1.38
2022-12-08T21:26:01.001Z,-1.34
2022-12-08T21:28:27.699Z,-1.30
2022-12-08T21:30:54.297Z,-1.27
2022-12-08T21:33:20.828Z,-1.33
2022-12-08T21:35:47.555Z,-1.35
2022-12-08T21:38:14.283Z,-1.35
2022-12-08T21:40:40.926Z,-1.31
2022-12-08T21:43:07.992Z,-1.27
2022-12-08T21:45:34.679Z,-1.34
2022-12-08T21:48:05.796Z,-1.36
2022-12-08T21:50:37.425Z,-1.35
2022-12-08T21:53:04.149Z,-1.34
2022-12-08T21:55:30.666Z,-1.27
2022-12-08T21:58:00.874Z,-1.24
2022-12-08T22:00:28.039Z,-1.22
2022-12-08T22:02:54.941Z,-1.29
2022-12-08T22:05:21.664Z,-1.35
2022-12-08T22:07:48.399Z,-1.37
2022-12-08T22:10:15.068Z,-1.39
2022-12-08T22:12:41.724Z,-1.39
2022-12-08T22:15:09.811Z,-1.41
2022-12-08T22:17:37.838Z,-1.43
2022-12-08T22:20:06.491Z,-1.38
2022-12-08T22:22:34.571Z,-1.41
2022-12-08T22:25:01.560Z,-1.43
2022-12-08T22:27:28.607Z,-1.44
2022-12-08T22:29:55.265Z,-1.46
2022-12-08T22:32:22.102Z,-1.48
2022-12-08T22:34:48.666Z,-1.51
2022-12-08T22:37:15.155Z,-1.51
2022-12-08T22:39:41.566Z,-1.54
2022-12-08T22:42:08.298Z,-1.59
2022-12-08T22:44:34.727Z,-1.54
2022-12-08T22:47:01.245Z,-1.56
2022-12-08T22:49:27.800Z,-1.61
2022-12-08T22:51:54.203Z,-1.56
2022-12-08T22:54:20.653Z,-1.59
2022-12-08T22:56:47.095Z,-1.61
2022-12-08T22:59:13.905Z,-1.59
2022-12-08T23:01:40.390Z,-1.66
2022-12-08T23:04:09.197Z,-1.72
2022-12-08T23:06:39.395Z,-1.81
2022-12-08T23:09:06.254Z,-1.86
2022-12-08T23:11:32.860Z,-1.82
2022-12-08T23:14:02.581Z,-1.82
2022-12-08T23:16:29.164Z,-1.80
2022-12-08T23:18:56.037Z,-1.75
2022-12-08T23:21:22.562Z,-1.75
2022-12-08T23:23:49.208Z,-1.81
2022-12-08T23:26:26.835Z,-1.88
2022-12-08T23:28:53.767Z,-1.88
2022-12-08T23:31:20.972Z,-1.90
2022-12-08T23:33:47.948Z,-1.93
2022-12-08T23:36:15.184Z,-1.94
2022-12-08T23:38:41.776Z,-1.92
2022-12-08T23:41:10.482Z,-1.94
2022-12-08T23:43:37.384Z,-1.89
2022-12-08T23:46:04.405Z,-1.87
2022-12-08T23:48:34.985Z,-1.89
2022-12-08T23:51:01.541Z,-1.95
2022-12-08T23:53:31.965Z,-1.99
2022-12-08T23:55:59.767Z,-2.00
2022-12-08T23:58:26.203Z,-1.96
